createdAt,value
2022-10-09T00:01:09.243Z,7.20
2022-10-09T00:03:37.639Z,7.30
2022-10-09T00:06:08.436Z,7.10
2022-10-09T00:08:36.477Z,7.10
2022-10-09T00:11:15.220Z,7.10
2022-10-09T00:13:42.330Z,7.00
2022-10-09T00:16:12.670Z,7.00
2022-10-09T00:18:39.710Z,7.10
2022-10-09T00:21:14.367Z,7.00
2022-10-09T00:23:41.091Z,7.10
2022-10-09T00:26:08.534Z,7.00
2022-10-09T00:28:38.464Z,7.00
2022-10-09T00:31:07.882Z,7.00
2022-10-09T00:33:35.858Z,6.90
2022-10-09T00:38:55.308Z,7.00
2022-10-09T00:41:26.730Z,7.00
2022-10-09T00:44:23.764Z,7.00
2022-10-09T00:46:52.244Z,7.00
2022-10-09T00:49:21.912Z,7.00
2022-10-09T00:54:40.844Z,6.90
2022-10-09T00:59:55.420Z,6.90
2022-10-09T01:05:10.621Z,6.90
2022-10-09T01:07:47.923Z,6.80
2022-10-09T01:10:37.719Z,6.80
2022-10-09T01:13:42.599Z,6.80
2022-10-09T01:16:12.381Z,6.80
2022-10-09T01:18:50.762Z,6.70
2022-10-09T01:24:28.899Z,6.70
2022-10-09T01:27:23.098Z,6.80
2022-10-09T01:29:55.833Z,6.70
2022-10-09T01:32:27.220Z,6.70
2022-10-09T01:34:54.346Z,6.70
2022-10-09T01:37:23.353Z,6.70
2022-10-09T01:39:52.105Z,6.60
2022-10-09T01:42:21.281Z,6.60
2022-10-09T01:44:48.012Z,6.70
2022-10-09T01:47:16.854Z,6.60
2022-10-09T01:50:25.049Z,6.60
2022-10-09T01:52:55.838Z,6.60
2022-10-09T01:55:41.349Z,6.60
2022-10-09T01:58:56.090Z,6.60
2022-10-09T02:04:19.419Z,6.50
2022-10-09T02:09:34.765Z,6.50
2022-10-09T02:12:05.875Z,6.50
2022-10-09T02:14:34.904Z,6.50
2022-10-09T02:20:16.516Z,6.50
2022-10-09T02:22:43.938Z,6.50
2022-10-09T02:25:11.323Z,6.50
2022-10-09T02:27:38.388Z,6.50
2022-10-09T02:30:08.349Z,6.50
2022-10-09T02:32:35.508Z,6.40
2022-10-09T02:35:02.233Z,6.60
2022-10-09T02:37:28.955Z,6.50
2022-10-09T02:39:55.715Z,6.40
2022-10-09T02:42:22.483Z,6.40
2022-10-09T02:44:49.189Z,6.40
2022-10-09T02:47:15.918Z,6.40
2022-10-09T02:49:42.653Z,6.40
2022-10-09T02:52:09.405Z,6.30
2022-10-09T02:54:36.166Z,6.30
2022-10-09T02:57:03.020Z,6.40
2022-10-09T02:59:29.707Z,6.30
2022-10-09T03:01:56.443Z,6.30
2022-10-09T03:04:23.188Z,6.30
2022-10-09T03:09:36.508Z,6.20
2022-10-09T03:14:50.002Z,6.30
2022-10-09T03:20:04.311Z,6.30
2022-10-09T03:25:17.662Z,6.20
2022-10-09T03:27:44.383Z,6.20
2022-10-09T03:30:11.448Z,6.20
2022-10-09T03:32:38.175Z,6.20
2022-10-09T03:35:05.371Z,6.10
2022-10-09T03:37:32.200Z,6.30
2022-10-09T03:39:59.456Z,6.20
2022-10-09T03:42:26.217Z,6.20
2022-10-09T03:44:53.078Z,6.20
2022-10-09T03:47:19.820Z,6.20
2022-10-09T03:49:46.558Z,6.20
2022-10-09T03:52:13.269Z,6.20
2022-10-09T03:54:40.002Z,6.10
2022-10-09T03:57:06.735Z,6.20
2022-10-09T03:59:33.468Z,6.10
2022-10-09T04:02:00.200Z,6.10
2022-10-09T04:04:27.478Z,6.10
2022-10-09T04:06:54.202Z,6.10
2022-10-09T04:09:20.935Z,6.10
2022-10-09T04:11:47.677Z,6.10
2022-10-09T04:14:14.382Z,6.10
2022-10-09T04:16:41.206Z,6.10
2022-10-09T04:19:07.993Z,6.10
2022-10-09T04:21:34.715Z,6.10
2022-10-09T04:24:03.951Z,6.20
2022-10-09T04:26:30.674Z,6.20
2022-10-09T04:28:57.366Z,6.30
2022-10-09T04:31:24.112Z,6.20
2022-10-09T04:33:50.881Z,6.10
2022-10-09T04:36:17.614Z,6.00
2022-10-09T04:38:44.314Z,6.00
2022-10-09T04:41:11.066Z,5.90
2022-10-09T04:46:24.669Z,5.90
2022-10-09T04:51:38.082Z,5.90
2022-10-09T04:56:51.524Z,5.80
2022-10-09T05:02:04.995Z,5.80
2022-10-09T05:04:31.882Z,5.80
2022-10-09T05:06:58.628Z,5.90
2022-10-09T05:09:25.353Z,5.90
2022-10-09T05:11:52.105Z,5.90
2022-10-09T05:14:18.817Z,5.90
2022-10-09T05:17:11.804Z,5.90
2022-10-09T05:22:19.465Z,5.90
2022-10-09T05:27:32.877Z,5.90
2022-10-09T05:29:59.590Z,5.90
2022-10-09T05:32:26.331Z,5.80
2022-10-09T05:34:53.065Z,5.90
2022-10-09T05:37:19.861Z,5.90
2022-10-09T05:39:46.596Z,5.90
2022-10-09T05:42:13.313Z,6.00
2022-10-09T05:44:40.047Z,6.00
2022-10-09T05:47:06.859Z,5.90
2022-10-09T05:49:33.596Z,5.80
2022-10-09T05:52:00.300Z,5.90
2022-10-09T05:54:27.149Z,5.90
2022-10-09T05:56:53.855Z,5.90
2022-10-09T05:59:20.556Z,5.90
2022-10-09T06:01:50.306Z,5.90
2022-10-09T06:04:22.108Z,6.00
2022-10-09T06:09:36.167Z,6.10
2022-10-09T06:14:49.660Z,6.20
2022-10-09T06:17:16.349Z,6.30
2022-10-09T06:19:43.050Z,6.20
2022-10-09T06:22:09.821Z,6.30
2022-10-09T06:24:36.643Z,6.30
2022-10-09T06:27:03.503Z,6.30
2022-10-09T06:29:30.275Z,6.40
2022-10-09T06:31:57.284Z,6.40
2022-10-09T06:34:24.005Z,6.50
2022-10-09T06:36:50.750Z,6.70
2022-10-09T06:39:17.546Z,6.80
2022-10-09T06:41:44.366Z,6.80
2022-10-09T06:44:16.610Z,6.80
2022-10-09T06:49:31.738Z,7.00
2022-10-09T06:51:58.503Z,7.00
2022-10-09T06:54:25.231Z,7.10
2022-10-09T06:56:54.233Z,7.10
2022-10-09T06:59:20.950Z,7.10
2022-10-09T07:01:47.841Z,7.20
2022-10-09T07:04:15.059Z,7.40
2022-10-09T07:06:44.726Z,7.40
2022-10-09T07:09:13.722Z,7.40
2022-10-09T07:11:45.783Z,7.60
2022-10-09T07:17:00.599Z,7.80
2022-10-09T07:22:13.956Z,8.00
2022-10-09T07:24:40.706Z,8.20
2022-10-09T07:27:07.451Z,8.40
2022-10-09T07:29:34.216Z,10.10
2022-10-09T07:32:01.142Z,13.00
2022-10-09T07:34:28.014Z,14.50
2022-10-09T07:36:54.788Z,15.60
2022-10-09T07:39:21.548Z,16.10
2022-10-09T07:41:50.851Z,16.70
2022-10-09T07:44:18.352Z,17.40
2022-10-09T07:46:45.849Z,16.80
2022-10-09T07:49:12.626Z,17.70
2022-10-09T07:51:39.337Z,18.00
2022-10-09T07:54:06.071Z,18.80
2022-10-09T07:56:34.983Z,18.00
2022-10-09T07:59:04.883Z,18.30
2022-10-09T08:01:33.619Z,18.60
2022-10-09T08:04:01.109Z,18.90
2022-10-09T08:06:28.284Z,17.90
2022-10-09T08:08:56.934Z,19.10
2022-10-09T08:11:25.393Z,19.60
2022-10-09T08:13:52.829Z,19.50
2022-10-09T08:16:21.401Z,19.40
2022-10-09T08:18:48.780Z,18.80
2022-10-09T08:21:18.351Z,19.70
2022-10-09T08:23:45.848Z,17.90
2022-10-09T08:26:13.812Z,19.30
2022-10-09T08:28:40.592Z,19.60
2022-10-09T08:31:15.604Z,20.00
2022-10-09T08:33:42.853Z,19.70
2022-10-09T08:36:11.962Z,19.90
2022-10-09T08:38:47.226Z,19.30
2022-10-09T08:41:32.955Z,19.30
2022-10-09T08:44:04.358Z,19.90
2022-10-09T08:46:46.495Z,20.40
2022-10-09T08:52:39.460Z,18.70
2022-10-09T08:55:25.841Z,19.30
2022-10-09T08:57:55.752Z,20.00
2022-10-09T09:00:26.651Z,20.00
2022-10-09T09:03:30.926Z,20.50
2022-10-09T09:09:40.115Z,20.50
2022-10-09T09:12:22.721Z,20.20
2022-10-09T09:15:05.555Z,20.30
2022-10-09T09:17:55.497Z,20.60
2022-10-09T09:20:38.047Z,20.60
2022-10-09T09:26:01.794Z,20.40
2022-10-09T09:31:24.005Z,20.70
2022-10-09T09:33:59.977Z,19.90
2022-10-09T09:36:39.647Z,20.10
2022-10-09T09:40:07.793Z,18.80
2022-10-09T09:41:58.759Z,19.40
2022-10-09T09:44:26.336Z,19.70
2022-10-09T09:46:53.481Z,19.10
2022-10-09T09:49:24.420Z,19.70
2022-10-09T09:51:51.399Z,18.80
2022-10-09T09:54:30.093Z,19.00
2022-10-09T09:57:19.476Z,18.90
2022-10-09T09:59:45.903Z,19.10
2022-10-09T10:02:21.569Z,18.10
2022-10-09T10:05:06.454Z,18.90
2022-10-09T10:07:38.148Z,19.10
2022-10-09T10:10:15.005Z,19.20
2022-10-09T10:12:57.030Z,19.40
2022-10-09T10:15:29.692Z,19.00
2022-10-09T10:18:04.031Z,19.20
2022-10-09T10:20:32.955Z,19.30
2022-10-09T10:23:00.596Z,19.60
2022-10-09T10:25:33.980Z,20.00
2022-10-09T10:28:08.505Z,20.20
2022-10-09T10:30:37.598Z,20.70
2022-10-09T10:36:04.917Z,20.40
2022-10-09T10:38:42.803Z,20.40
2022-10-09T10:41:15.766Z,20.60
2022-10-09T10:46:39.529Z,21.20
2022-10-09T10:49:11.495Z,20.50
2022-10-09T10:55:16.687Z,20.80
2022-10-09T10:58:05.015Z,21.20
2022-10-09T11:04:09.698Z,21.50
2022-10-09T11:10:17.604Z,21.60
2022-10-09T11:12:50.351Z,21.80
2022-10-09T11:15:26.310Z,21.50
2022-10-09T11:18:06.456Z,22.50
2022-10-09T11:20:54.214Z,21.40
2022-10-09T11:24:03.606Z,21.80
2022-10-09T11:27:02.389Z,20.60
2022-10-09T11:29:37.151Z,21.30
2022-10-09T11:32:15.504Z,20.70
2022-10-09T11:34:48.364Z,20.40
2022-10-09T11:37:21.026Z,19.70
2022-10-09T11:39:47.846Z,20.50
2022-10-09T11:42:20.766Z,21.20
2022-10-09T11:45:28.883Z,21.50
2022-10-09T11:48:16.515Z,21.90
2022-10-09T11:53:40.624Z,21.90
2022-10-09T11:56:20.736Z,21.70
2022-10-09T11:59:02.847Z,21.20
2022-10-09T12:04:50.437Z,20.90
2022-10-09T12:07:36.343Z,20.60
2022-10-09T12:10:09.827Z,21.10
2022-10-09T12:12:37.112Z,20.90
2022-10-09T12:18:24.403Z,18.80
2022-10-09T12:23:39.851Z,19.60
2022-10-09T12:26:12.188Z,19.20
2022-10-09T12:29:01.932Z,18.30
2022-10-09T12:31:41.395Z,19.10
2022-10-09T12:34:22.325Z,19.50
2022-10-09T12:36:49.327Z,19.70
2022-10-09T12:39:21.462Z,19.90
2022-10-09T12:41:52.005Z,20.20
2022-10-09T12:47:29.329Z,19.80
2022-10-09T12:52:55.281Z,19.30
2022-10-09T12:55:34.077Z,18.70
2022-10-09T12:58:15.118Z,18.80
2022-10-09T13:00:42.598Z,18.20
2022-10-09T13:03:34.048Z,18.00
2022-10-09T13:06:02.138Z,18.30
2022-10-09T13:08:33.262Z,18.60
2022-10-09T13:11:24.114Z,18.30
2022-10-09T13:13:55.490Z,17.70
2022-10-09T13:19:22.087Z,17.50
2022-10-09T13:22:20.235Z,17.20
2022-10-09T13:27:39.653Z,17.50
2022-10-09T13:32:54.545Z,16.80
2022-10-09T13:38:13.900Z,16.90
2022-10-09T13:40:40.674Z,16.70
2022-10-09T13:43:07.498Z,16.90
2022-10-09T13:45:34.194Z,16.90
2022-10-09T13:48:00.890Z,16.70
2022-10-09T13:50:27.631Z,16.90
2022-10-09T13:52:54.363Z,17.10
2022-10-09T13:55:21.129Z,16.60
2022-10-09T13:57:48.202Z,16.60
2022-10-09T14:00:15.286Z,16.50
2022-10-09T14:02:42.108Z,16.60
2022-10-09T14:05:09.026Z,16.70
2022-10-09T14:07:35.864Z,16.70
2022-10-09T14:10:02.784Z,16.40
2022-10-09T14:12:29.613Z,16.40
2022-10-09T14:14:56.324Z,16.20
2022-10-09T14:17:23.033Z,16.10
2022-10-09T14:22:36.430Z,16.00
2022-10-09T14:27:50.182Z,15.50
2022-10-09T14:32:43.770Z,15.70
2022-10-09T14:35:10.861Z,15.70
2022-10-09T14:37:41.467Z,15.70
2022-10-09T14:40:09.985Z,15.70
2022-10-09T14:42:38.001Z,15.60
2022-10-09T14:45:05.697Z,15.50
2022-10-09T14:47:32.437Z,15.40
2022-10-09T14:49:59.211Z,15.30
2022-10-09T14:52:26.024Z,15.20
2022-10-09T14:54:52.772Z,15.10
2022-10-09T14:57:19.473Z,14.90
2022-10-09T14:59:46.190Z,14.80
2022-10-09T15:02:15.286Z,14.80
2022-10-09T15:04:42.070Z,14.70
2022-10-09T15:07:08.862Z,14.60
2022-10-09T15:09:35.637Z,14.60
2022-10-09T15:12:02.404Z,14.50
2022-10-09T15:14:29.193Z,14.50
2022-10-09T15:16:56.020Z,14.40
2022-10-09T15:19:22.751Z,14.30
2022-10-09T15:21:49.467Z,14.30
2022-10-09T15:24:16.190Z,14.40
2022-10-09T15:26:42.949Z,14.30
2022-10-09T15:29:10.885Z,14.10
2022-10-09T15:31:39.765Z,14.10
2022-10-09T15:34:07.836Z,14.10
2022-10-09T15:36:37.371Z,14.00
2022-10-09T15:41:51.608Z,13.90
2022-10-09T15:47:07.057Z,13.70
2022-10-09T15:49:34.144Z,13.70
2022-10-09T15:52:00.908Z,13.50
2022-10-09T15:54:27.723Z,13.40
2022-10-09T15:56:54.480Z,13.40
2022-10-09T15:59:22.751Z,13.30
2022-10-09T16:01:49.489Z,13.20
2022-10-09T16:04:16.214Z,13.10
2022-10-09T16:06:43.069Z,13.00
2022-10-09T16:09:09.782Z,12.80
2022-10-09T16:11:36.508Z,12.80
2022-10-09T16:14:03.230Z,12.70
2022-10-09T16:16:30.006Z,12.50
2022-10-09T16:18:57.297Z,12.40
2022-10-09T16:21:27.847Z,12.30
2022-10-09T16:23:58.687Z,12.20
2022-10-09T16:26:27.751Z,12.10
2022-10-09T16:28:54.581Z,12.00
2022-10-09T16:31:26.233Z,11.80
2022-10-09T16:33:53.709Z,11.70
2022-10-09T16:36:20.679Z,11.70
2022-10-09T16:38:47.728Z,11.60
2022-10-09T16:41:17.555Z,11.50
2022-10-09T16:43:45.650Z,11.50
2022-10-09T16:46:20.476Z,11.40
2022-10-09T16:48:48.381Z,11.30
2022-10-09T16:51:19.435Z,11.20
2022-10-09T16:56:39.911Z,11.00
2022-10-09T16:59:10.858Z,11.10
2022-10-09T17:01:38.565Z,11.10
2022-10-09T17:04:05.590Z,11.00
2022-10-09T17:09:00.004Z,10.90
2022-10-09T17:11:28.864Z,10.80
2022-10-09T17:16:43.236Z,10.90
2022-10-09T17:21:56.722Z,10.70
2022-10-09T17:24:23.446Z,10.80
2022-10-09T17:26:50.249Z,10.80
2022-10-09T17:29:17.002Z,10.70
2022-10-09T17:31:44.030Z,10.70
2022-10-09T17:34:12.297Z,10.70
2022-10-09T17:36:41.509Z,10.50
2022-10-09T17:42:02.237Z,10.50
2022-10-09T17:47:15.667Z,10.40
2022-10-09T17:52:29.073Z,10.30
2022-10-09T17:57:42.409Z,10.20
2022-10-09T18:00:09.722Z,10.30
2022-10-09T18:02:36.449Z,10.20
2022-10-09T18:05:03.229Z,10.20
2022-10-09T18:07:29.978Z,10.20
2022-10-09T18:09:56.702Z,10.20
2022-10-09T18:12:23.429Z,10.20
2022-10-09T18:14:50.253Z,10.20
2022-10-09T18:17:16.968Z,10.10
2022-10-09T18:19:43.764Z,10.10
2022-10-09T18:22:10.477Z,10.00
2022-10-09T18:24:37.202Z,10.00
2022-10-09T18:27:04.023Z,10.00
2022-10-09T18:29:30.997Z,10.00
2022-10-09T18:34:46.586Z,9.90
2022-10-09T18:40:00.177Z,9.90
2022-10-09T18:44:53.909Z,9.70
2022-10-09T18:47:23.076Z,9.70
2022-10-09T18:52:41.999Z,9.60
2022-10-09T18:57:58.876Z,9.60
2022-10-09T19:03:12.307Z,9.40
2022-10-09T19:08:25.955Z,9.50
2022-10-09T19:13:41.822Z,9.60
2022-10-09T19:16:08.543Z,9.50
2022-10-09T19:18:35.676Z,9.50
2022-10-09T19:21:02.819Z,9.50
2022-10-09T19:23:29.916Z,9.50
2022-10-09T19:25:58.608Z,9.40
2022-10-09T19:28:27.650Z,9.50
2022-10-09T19:30:54.484Z,9.40
2022-10-09T19:33:21.384Z,9.50
2022-10-09T19:35:53.395Z,9.30
2022-10-09T19:38:21.211Z,9.40
2022-10-09T19:40:48.457Z,9.40
2022-10-09T19:43:16.362Z,9.30
2022-10-09T19:45:43.475Z,9.30
2022-10-09T19:48:10.403Z,9.30
2022-10-09T19:50:41.549Z,9.30
2022-10-09T19:53:08.356Z,9.20
2022-10-09T19:55:36.030Z,9.20
2022-10-09T19:58:03.035Z,9.20
2022-10-09T20:00:30.027Z,9.20
2022-10-09T20:02:56.773Z,9.20
2022-10-09T20:05:23.546Z,9.20
2022-10-09T20:07:50.608Z,9.20
2022-10-09T20:10:17.463Z,9.20
2022-10-09T20:12:44.303Z,9.20
2022-10-09T20:15:11.185Z,9.10
2022-10-09T20:17:37.928Z,9.20
2022-10-09T20:20:05.394Z,9.10
2022-10-09T20:22:32.155Z,9.20
2022-10-09T20:24:58.908Z,9.20
2022-10-09T20:27:25.664Z,9.10
2022-10-09T20:29:53.212Z,9.10
2022-10-09T20:35:07.330Z,9.10
2022-10-09T20:40:20.733Z,9.10
2022-10-09T20:45:42.958Z,9.10
2022-10-09T20:48:10.069Z,9.00
2022-10-09T20:50:41.765Z,9.00
2022-10-09T20:53:09.273Z,8.90
2022-10-09T20:55:36.394Z,8.90
2022-10-09T20:58:03.951Z,8.80
2022-10-09T21:00:30.745Z,8.80
2022-10-09T21:02:57.449Z,8.80
2022-10-09T21:05:24.340Z,8.80
2022-10-09T21:07:51.053Z,8.70
2022-10-09T21:10:17.799Z,8.70
2022-10-09T21:12:44.528Z,8.70
2022-10-09T21:15:11.358Z,8.60
2022-10-09T21:17:38.137Z,8.60
2022-10-09T21:20:05.234Z,8.60
2022-10-09T21:22:32.000Z,8.60
2022-10-09T21:24:58.725Z,8.50
2022-10-09T21:27:25.432Z,8.60
2022-10-09T21:29:52.260Z,8.50
2022-10-09T21:32:19.013Z,8.50
2022-10-09T21:34:45.807Z,8.40
2022-10-09T21:37:21.581Z,8.50
2022-10-09T21:39:49.014Z,8.40
2022-10-09T21:42:15.799Z,8.40
2022-10-09T21:44:42.488Z,8.30
2022-10-09T21:47:16.653Z,8.30
2022-10-09T21:49:43.437Z,8.30
2022-10-09T21:52:10.849Z,8.30
2022-10-09T21:54:37.663Z,8.30
2022-10-09T21:57:04.403Z,8.40
2022-10-09T21:59:31.143Z,8.40
2022-10-09T22:01:57.959Z,8.40
2022-10-09T22:04:24.642Z,8.40
2022-10-09T22:06:51.583Z,8.40
2022-10-09T22:12:05.032Z,8.40
2022-10-09T22:17:18.506Z,8.40
2022-10-09T22:22:32.048Z,8.40
2022-10-09T22:24:58.807Z,8.30
2022-10-09T22:27:25.764Z,8.30
2022-10-09T22:29:52.635Z,8.30
2022-10-09T22:32:19.358Z,8.30
2022-10-09T22:34:46.114Z,8.30
2022-10-09T22:37:12.820Z,8.20
2022-10-09T22:39:39.834Z,8.20
2022-10-09T22:42:06.793Z,8.20
2022-10-09T22:44:33.570Z,8.20
2022-10-09T22:47:00.313Z,8.20
2022-10-09T22:49:27.055Z,8.20
2022-10-09T22:51:53.758Z,8.20
2022-10-09T22:54:20.496Z,8.20
2022-10-09T22:56:47.317Z,8.20
2022-10-09T22:59:15.887Z,8.10
2022-10-09T23:01:46.500Z,8.20
2022-10-09T23:07:01.246Z,8.30
2022-10-09T23:12:18.172Z,8.20
2022-10-09T23:17:31.678Z,8.20
2022-10-09T23:19:58.471Z,8.30
2022-10-09T23:22:25.158Z,8.30
2022-10-09T23:24:51.890Z,8.20
2022-10-09T23:27:18.642Z,8.20
2022-10-09T23:29:45.430Z,8.20
2022-10-09T23:32:12.127Z,8.20
2022-10-09T23:34:38.857Z,8.10
2022-10-09T23:37:05.565Z,8.20
2022-10-09T23:39:32.290Z,8.30
2022-10-09T23:41:59.031Z,8.30
2022-10-09T23:44:25.739Z,8.20
2022-10-09T23:46:52.462Z,8.30
2022-10-09T23:49:19.214Z,8.40
2022-10-09T23:51:45.945Z,8.30
2022-10-09T23:54:12.668Z,8.30
2022-10-09T23:56:39.392Z,8.30
2022-10-09T23:59:06.712Z,8.20
